sensor_id;sensor_type;location;lat;lon;timestamp;pressure;altitude;pressure_sealevel;temperature;humidity
22572;BME280;11452;53.368;14.658;2023-01-26T00:00:22;101886.53;;;1.70;81.35
22572;BME280;11452;53.368;14.658;2023-01-26T00:05:28;101873.38;;;1.51;80.80
22572;BME280;11452;53.368;14.658;2023-01-26T00:10:37;101869.88;;;1.62;81.27
22572;BME280;11452;53.368;14.658;2023-01-26T00:15:44;101862.85;;;1.63;81.31
22572;BME280;11452;53.368;14.658;2023-01-26T00:21:01;101859.34;;;1.62;81.28
22572;BME280;11452;53.368;14.658;2023-01-26T00:26:02;101854.07;;;1.65;81.32
22572;BME280;11452;53.368;14.658;2023-01-26T00:31:20;101854.95;;;1.61;81.48
22572;BME280;11452;53.368;14.658;2023-01-26T00:36:20;101840.89;;;1.52;81.29
22572;BME280;11452;53.368;14.658;2023-01-26T00:41:26;101839.14;;;1.49;81.46
22572;BME280;11452;53.368;14.658;2023-01-26T00:46:51;101841.34;;;1.54;81.41
22572;BME280;11452;53.368;14.658;2023-01-26T00:51:57;101833.87;;;1.57;81.78
22572;BME280;11452;53.368;14.658;2023-01-26T00:57:02;101821.17;;;1.47;81.18
22572;BME280;11452;53.368;14.658;2023-01-26T01:02:08;101822.93;;;1.48;81.64
22572;BME280;11452;53.368;14.658;2023-01-26T01:07:13;101814.55;;;1.58;81.94
22572;BME280;11452;53.368;14.658;2023-01-26T01:12:19;101809.28;;;1.55;81.32
22572;BME280;11452;53.368;14.658;2023-01-26T01:17:25;101809.28;;;1.50;81.67
22572;BME280;11452;53.368;14.658;2023-01-26T01:22:34;101802.70;;;1.56;81.79
22572;BME280;11452;53.368;14.658;2023-01-26T01:27:40;101792.16;;;1.50;81.45
22572;BME280;11452;53.368;14.658;2023-01-26T01:32:46;101791.77;;;1.46;81.61
22572;BME280;11452;53.368;14.658;2023-01-26T01:37:53;101782.95;;;1.55;82.15
22572;BME280;11452;53.368;14.658;2023-01-26T01:42:58;101782.95;;;1.52;81.49
22572;BME280;11452;53.368;14.658;2023-01-26T01:48:06;101777.66;;;1.65;81.87
22572;BME280;11452;53.368;14.658;2023-01-26T01:53:17;101771.08;;;1.65;81.72
22572;BME280;11452;53.368;14.658;2023-01-26T01:58:23;101765.38;;;1.52;81.16
22572;BME280;11452;53.368;14.658;2023-01-26T02:03:30;101757.52;;;1.46;81.34
22572;BME280;11452;53.368;14.658;2023-01-26T02:13:49;101748.78;;;1.27;81.47
22572;BME280;11452;53.368;14.658;2023-01-26T02:18:55;101744.36;;;1.37;81.85
22572;BME280;11452;53.368;14.658;2023-01-26T02:24:05;101738.66;;;1.36;81.61
22572;BME280;11452;53.368;14.658;2023-01-26T02:29:10;101735.14;;;1.43;81.71
22572;BME280;11452;53.368;14.658;2023-01-26T02:34:18;101730.75;;;1.41;81.72
22572;BME280;11452;53.368;14.658;2023-01-26T02:39:47;101725.92;;;1.38;81.97
22572;BME280;11452;53.368;14.658;2023-01-26T02:44:52;101720.22;;;1.31;81.49
22572;BME280;11452;53.368;14.658;2023-01-26T02:49:58;101716.70;;;1.43;82.11
22572;BME280;11452;53.368;14.658;2023-01-26T02:55:05;101715.77;;;1.56;82.48
22572;BME280;11452;53.368;14.658;2023-01-26T03:00:28;101715.38;;;1.46;81.38
22572;BME280;11452;53.368;14.658;2023-01-26T03:05:34;101730.35;;;1.29;81.48
22572;BME280;11452;53.368;14.658;2023-01-26T03:10:40;101743.95;;;1.27;81.64
22572;BME280;11452;53.368;14.658;2023-01-26T03:15:46;101732.98;;;1.18;81.40
22572;BME280;11452;53.368;14.658;2023-01-26T03:21:08;101733.42;;;1.28;81.76
22572;BME280;11452;53.368;14.658;2023-01-26T03:26:31;101729.92;;;1.22;81.25
22572;BME280;11452;53.368;14.658;2023-01-26T03:31:54;101719.39;;;1.13;81.66
22572;BME280;11452;53.368;14.658;2023-01-26T03:37:00;101717.63;;;1.19;81.63
22572;BME280;11452;53.368;14.658;2023-01-26T03:42:08;101714.56;;;1.20;81.90
22572;BME280;11452;53.368;14.658;2023-01-26T03:47:32;101708.86;;;1.20;81.67
22572;BME280;11452;53.368;14.658;2023-01-26T03:52:57;101718.11;;;1.08;81.63
22572;BME280;11452;53.368;14.658;2023-01-26T03:58:20;101704.51;;;1.10;81.95
22572;BME280;11452;53.368;14.658;2023-01-26T04:03:26;101697.00;;;1.25;82.20
22572;BME280;11452;53.368;14.658;2023-01-26T04:08:50;101688.17;;;1.43;82.37
22572;BME280;11452;53.368;14.658;2023-01-26T04:13:55;101682.91;;;1.41;81.92
22572;BME280;11452;53.368;14.658;2023-01-26T04:19:19;101678.88;;;1.61;82.71
22572;BME280;11452;53.368;14.658;2023-01-26T04:24:43;101674.95;;;1.55;81.81
22572;BME280;11452;53.368;14.658;2023-01-26T04:29:49;101675.45;;;1.34;81.05
22572;BME280;11452;53.368;14.658;2023-01-26T04:34:55;101670.23;;;1.25;81.35
22572;BME280;11452;53.368;14.658;2023-01-26T04:40:03;101679.89;;;1.26;81.40
22572;BME280;11452;53.368;14.658;2023-01-26T04:45:10;101675.50;;;1.28;81.45
22572;BME280;11452;53.368;14.658;2023-01-26T04:50:17;101663.66;;;1.28;81.89
22572;BME280;11452;53.368;14.658;2023-01-26T04:55:23;101653.07;;;1.37;82.34
22572;BME280;11452;53.368;14.658;2023-01-26T05:00:29;101657.03;;;1.33;81.90
22572;BME280;11452;53.368;14.658;2023-01-26T05:05:37;101658.39;;;1.21;81.45
22572;BME280;11452;53.368;14.658;2023-01-26T05:10:43;101658.84;;;1.22;82.11
22572;BME280;11452;53.368;14.658;2023-01-26T05:15:51;101653.13;;;1.25;81.69
22572;BME280;11452;53.368;14.658;2023-01-26T05:20:58;101663.61;;;1.31;82.27
22572;BME280;11452;53.368;14.658;2023-01-26T05:26:05;101661.85;;;1.35;82.14
22572;BME280;11452;53.368;14.658;2023-01-26T05:31:15;101666.67;;;1.37;82.13
22572;BME280;11452;53.368;14.658;2023-01-26T05:36:21;101669.75;;;1.35;82.34
22572;BME280;11452;53.368;14.658;2023-01-26T05:41:27;101666.23;;;1.37;82.11
22572;BME280;11452;53.368;14.658;2023-01-26T05:46:34;101657.47;;;1.31;81.61
22572;BME280;11452;53.368;14.658;2023-01-26T05:51:41;101665.80;;;1.35;82.03
22572;BME280;11452;53.368;14.658;2023-01-26T05:56:47;101671.11;;;1.29;81.81
22572;BME280;11452;53.368;14.658;2023-01-26T06:01:54;101667.09;;;1.47;82.25
22572;BME280;11452;53.368;14.658;2023-01-26T06:07:01;101665.34;;;1.45;81.81
22572;BME280;11452;53.368;14.658;2023-01-26T06:12:16;101666.25;;;1.33;81.69
22572;BME280;11452;53.368;14.658;2023-01-26T06:17:24;101665.41;;;1.23;81.18
22572;BME280;11452;53.368;14.658;2023-01-26T06:22:31;101668.05;;;1.20;81.35
22572;BME280;11452;53.368;14.658;2023-01-26T06:27:37;101670.23;;;1.30;81.72
22572;BME280;11452;53.368;14.658;2023-01-26T06:32:46;101657.47;;;1.31;81.66
22572;BME280;11452;53.368;14.658;2023-01-26T06:37:54;101671.92;;;1.46;81.69
22572;BME280;11452;53.368;14.658;2023-01-26T06:42:59;101682.46;;;1.45;81.72
22572;BME280;11452;53.368;14.658;2023-01-26T06:48:05;101683.27;;;1.65;82.23
22572;BME280;11452;53.368;14.658;2023-01-26T06:53:25;101676.23;;;1.67;81.82
22572;BME280;11452;53.368;14.658;2023-01-26T06:58:36;101679.70;;;1.70;81.83
22572;BME280;11452;53.368;14.658;2023-01-26T07:03:59;101666.53;;;1.69;81.61
22572;BME280;11452;53.368;14.658;2023-01-26T07:09:05;101670.97;;;1.62;81.42
22572;BME280;11452;53.368;14.658;2023-01-26T07:14:10;101669.22;;;1.61;80.96
22572;BME280;11452;53.368;14.658;2023-01-26T07:19:17;101662.19;;;1.62;81.48
22572;BME280;11452;53.368;14.658;2023-01-26T07:24:22;101672.12;;;1.91;82.17
22572;BME280;11452;53.368;14.658;2023-01-26T07:29:28;101681.85;;;1.85;81.49
22572;BME280;11452;53.368;14.658;2023-01-26T07:34:34;101672.08;;;2.02;81.50
22572;BME280;11452;53.368;14.658;2023-01-26T07:39:39;101661.92;;;2.06;81.26
22572;BME280;11452;53.368;14.658;2023-01-26T07:44:45;101658.80;;;2.17;80.93
22572;BME280;11452;53.368;14.658;2023-01-26T07:49:50;101663.24;;;2.06;80.40
22572;BME280;11452;53.368;14.658;2023-01-26T07:54:56;101663.73;;;2.01;80.12
22572;BME280;11452;53.368;14.658;2023-01-26T08:00:02;101663.30;;;2.00;80.01
22572;BME280;11452;53.368;14.658;2023-01-26T08:05:09;101663.33;;;1.94;79.81
22572;BME280;11452;53.368;14.658;2023-01-26T08:10:15;101670.00;;;1.82;79.45
22572;BME280;11452;53.368;14.658;2023-01-26T08:15:21;101672.21;;;1.78;79.18
22572;BME280;11452;53.368;14.658;2023-01-26T08:20:27;101683.55;;;1.89;79.54
22572;BME280;11452;53.368;14.658;2023-01-26T08:25:32;101685.48;;;1.56;78.30
22572;BME280;11452;53.368;14.658;2023-01-26T08:30:38;101676.71;;;1.51;79.24
22572;BME280;11452;53.368;14.658;2023-01-26T08:35:43;101662.63;;;1.61;78.82
22572;BME280;11452;53.368;14.658;2023-01-26T08:40:51;101668.35;;;1.58;78.60
22572;BME280;11452;53.368;14.658;2023-01-26T08:45:58;101674.44;;;1.69;79.04
22572;BME280;11452;53.368;14.658;2023-01-26T08:51:05;101682.66;;;1.96;79.61
22572;BME280;11452;53.368;14.658;2023-01-26T08:56:12;101668.19;;;1.87;78.72
22572;BME280;11452;53.368;14.658;2023-01-26T09:01:18;101668.77;;;1.66;78.32
22572;BME280;11452;53.368;14.658;2023-01-26T09:06:23;101678.36;;;1.78;78.75
22572;BME280;11452;53.368;14.658;2023-01-26T09:11:31;101678.72;;;1.90;78.47
22572;BME280;11452;53.368;14.658;2023-01-26T09:16:37;101671.33;;;1.79;78.03
22572;BME280;11452;53.368;14.658;2023-01-26T09:21:43;101672.28;;;1.67;77.76
22572;BME280;11452;53.368;14.658;2023-01-26T09:26:48;101665.17;;;1.80;78.48
22572;BME280;11452;53.368;14.658;2023-01-26T09:31:53;101658.08;;;1.89;78.24
22572;BME280;11452;53.368;14.658;2023-01-26T09:36:59;101655.95;;;1.80;77.78
22572;BME280;11452;53.368;14.658;2023-01-26T09:47:30;101672.11;;;1.96;77.58
22572;BME280;11452;53.368;14.658;2023-01-26T09:52:41;101672.30;;;1.61;77.24
22572;BME280;11452;53.368;14.658;2023-01-26T09:57:54;101667.45;;;1.65;77.50
22572;BME280;11452;53.368;14.658;2023-01-26T10:08:43;101656.48;;;1.61;77.97
22572;BME280;11452;53.368;14.658;2023-01-26T10:13:52;101653.40;;;1.66;77.97
22572;BME280;11452;53.368;14.658;2023-01-26T10:24:27;101641.05;;;1.71;77.79
22572;BME280;11452;53.368;14.658;2023-01-26T10:29:32;101633.58;;;1.72;78.29
22572;BME280;11452;53.368;14.658;2023-01-26T10:34:38;101626.00;;;1.91;78.50
22572;BME280;11452;53.368;14.658;2023-01-26T10:40:01;101623.32;;;2.00;78.07
22572;BME280;11452;53.368;14.658;2023-01-26T10:45:25;101614.58;;;1.91;78.26
22572;BME280;11452;53.368;14.658;2023-01-26T10:50:31;101615.97;;;1.85;77.49
22572;BME280;11452;53.368;14.658;2023-01-26T10:55:38;101612.93;;;1.76;78.56
22572;BME280;11452;53.368;14.658;2023-01-26T11:00:48;101600.94;;;1.96;78.38
22572;BME280;11452;53.368;14.658;2023-01-26T11:06:13;101598.34;;;1.90;77.80
22572;BME280;11452;53.368;14.658;2023-01-26T11:11:26;101600.15;;;1.85;78.02
22572;BME280;11452;53.368;14.658;2023-01-26T11:16:35;101588.37;;;1.69;77.76
22572;BME280;11452;53.368;14.658;2023-01-26T11:27:05;101597.15;;;1.68;77.86
22572;BME280;11452;53.368;14.658;2023-01-26T11:32:26;101595.44;;;1.66;77.91
22572;BME280;11452;53.368;14.658;2023-01-26T11:37:43;101591.40;;;1.78;78.07
22572;BME280;11452;53.368;14.658;2023-01-26T11:43:05;101587.56;;;1.58;78.20
22572;BME280;11452;53.368;14.658;2023-01-26T11:48:25;101587.13;;;1.60;78.07
22572;BME280;11452;53.368;14.658;2023-01-26T11:58:52;101599.01;;;1.51;78.72
22572;BME280;11452;53.368;14.658;2023-01-26T12:03:57;101589.75;;;1.62;78.59
22572;BME280;11452;53.368;14.658;2023-01-26T12:09:05;101574.44;;;1.49;78.21
22572;BME280;11452;53.368;14.658;2023-01-26T12:19:47;101567.82;;;1.55;79.12
22572;BME280;11452;53.368;14.658;2023-01-26T12:25:14;101552.45;;;1.56;78.53
22572;BME280;11452;53.368;14.658;2023-01-26T12:30:27;101545.77;;;1.70;79.07
22572;BME280;11452;53.368;14.658;2023-01-26T12:36:18;101542.56;;;1.89;78.72
22572;BME280;11452;53.368;14.658;2023-01-26T12:40:51;101536.35;;;1.97;78.80
22572;BME280;11452;53.368;14.658;2023-01-26T12:45:55;101530.47;;;2.18;78.68
22572;BME280;11452;53.368;14.658;2023-01-26T12:51:07;101524.36;;;2.11;77.81
22572;BME280;11452;53.368;14.658;2023-01-26T12:56:24;101532.85;;;1.95;77.52
22572;BME280;11452;53.368;14.658;2023-01-26T13:01:35;101532.97;;;1.82;76.84
22572;BME280;11452;53.368;14.658;2023-01-26T13:06:36;101539.58;;;1.77;76.89
22572;BME280;11452;53.368;14.658;2023-01-26T13:11:50;101540.92;;;1.72;76.97
22572;BME280;11452;53.368;14.658;2023-01-26T13:22:28;101542.64;;;1.80;77.14
22572;BME280;11452;53.368;14.658;2023-01-26T13:27:33;101537.81;;;1.79;77.50
22572;BME280;11452;53.368;14.658;2023-01-26T13:37:58;101549.78;;;1.65;77.33
22572;BME280;11452;53.368;14.658;2023-01-26T13:43:15;101543.19;;;1.65;77.37
22572;BME280;11452;53.368;14.658;2023-01-26T13:48:46;101536.55;;;1.70;77.57
22572;BME280;11452;53.368;14.658;2023-01-26T13:54:12;101539.70;;;1.60;77.77
22572;BME280;11452;53.368;14.658;2023-01-26T13:59:18;101547.52;;;1.72;77.92
22572;BME280;11452;53.368;14.658;2023-01-26T14:04:29;101540.36;;;1.88;78.03
22572;BME280;11452;53.368;14.658;2023-01-26T14:09:42;101544.75;;;1.89;77.70
22572;BME280;11452;53.368;14.658;2023-01-26T14:14:45;101551.48;;;1.68;77.37
22572;BME280;11452;53.368;14.658;2023-01-26T14:19:52;101554.92;;;1.82;78.46
22572;BME280;11452;53.368;14.658;2023-01-26T14:24:58;101551.77;;;1.92;78.07
22572;BME280;11452;53.368;14.658;2023-01-26T14:30:26;101547.65;;;2.12;78.59
22572;BME280;11452;53.368;14.658;2023-01-26T14:35:29;101562.52;;;2.22;78.19
22572;BME280;11452;53.368;14.658;2023-01-26T14:40:35;101562.58;;;2.13;77.56
22572;BME280;11452;53.368;14.658;2023-01-26T14:45:48;101550.25;;;2.16;77.50
22572;BME280;11452;53.368;14.658;2023-01-26T14:50:53;101552.00;;;2.19;77.60
22572;BME280;11452;53.368;14.658;2023-01-26T14:55:59;101552.31;;;2.30;77.86
22572;BME280;11452;53.368;14.658;2023-01-26T15:01:05;101556.19;;;2.41;77.62
22572;BME280;11452;53.368;14.658;2023-01-26T15:06:21;101552.30;;;2.32;77.27
22572;BME280;11452;53.368;14.658;2023-01-26T15:11:38;101548.91;;;2.21;76.74
22572;BME280;11452;53.368;14.658;2023-01-26T15:17:03;101552.77;;;2.30;77.44
22572;BME280;11452;53.368;14.658;2023-01-26T15:22:20;101557.55;;;2.35;77.44
22572;BME280;11452;53.368;14.658;2023-01-26T15:27:31;101556.58;;;2.43;77.36
22572;BME280;11452;53.368;14.658;2023-01-26T15:32:38;101550.33;;;2.55;77.51
22572;BME280;11452;53.368;14.658;2023-01-26T15:37:45;101555.14;;;2.57;77.25
22572;BME280;11452;53.368;14.658;2023-01-26T15:48:16;101567.92;;;2.55;76.75
22572;BME280;11452;53.368;14.658;2023-01-26T15:53:22;101574.22;;;2.40;76.37
22572;BME280;11452;53.368;14.658;2023-01-26T15:58:27;101578.23;;;2.32;76.27
22572;BME280;11452;53.368;14.658;2023-01-26T16:03:34;101574.73;;;2.30;76.65
22572;BME280;11452;53.368;14.658;2023-01-26T16:08:40;101575.98;;;2.39;76.77
22572;BME280;11452;53.368;14.658;2023-01-26T16:13:46;101568.91;;;2.41;77.11
22572;BME280;11452;53.368;14.658;2023-01-26T16:18:54;101562.30;;;2.43;77.07
22572;BME280;11452;53.368;14.658;2023-01-26T16:24:00;101568.32;;;2.59;77.16
22572;BME280;11452;53.368;14.658;2023-01-26T16:29:06;101574.54;;;2.52;76.52
22572;BME280;11452;53.368;14.658;2023-01-26T16:34:12;101579.84;;;2.49;76.73
22572;BME280;11452;53.368;14.658;2023-01-26T16:39:17;101590.97;;;2.34;75.95
22572;BME280;11452;53.368;14.658;2023-01-26T16:44:23;101583.51;;;2.32;76.69
22572;BME280;11452;53.368;14.658;2023-01-26T16:49:28;101586.56;;;2.35;76.26
22572;BME280;11452;53.368;14.658;2023-01-26T16:54:34;101585.84;;;2.18;76.19
22572;BME280;11452;53.368;14.658;2023-01-26T16:59:39;101591.04;;;2.24;76.85
22572;BME280;11452;53.368;14.658;2023-01-26T17:04:45;101591.43;;;2.31;76.90
22572;BME280;11452;53.368;14.658;2023-01-26T17:09:50;101592.77;;;2.28;76.81
22572;BME280;11452;53.368;14.658;2023-01-26T17:14:56;101601.53;;;2.31;76.89
22572;BME280;11452;53.368;14.658;2023-01-26T17:20:02;101591.89;;;2.27;76.91
22572;BME280;11452;53.368;14.658;2023-01-26T17:25:10;101581.34;;;2.27;76.81
22572;BME280;11452;53.368;14.658;2023-01-26T17:30:17;101590.55;;;2.32;76.92
22572;BME280;11452;53.368;14.658;2023-01-26T17:35:23;101586.97;;;2.40;77.14
22572;BME280;11452;53.368;14.658;2023-01-26T17:40:29;101585.28;;;2.77;76.07
22572;BME280;11452;53.368;14.658;2023-01-26T17:45:34;101590.27;;;2.61;76.80
22572;BME280;11452;53.368;14.658;2023-01-26T17:50:48;101593.34;;;2.60;76.72
22572;BME280;11452;53.368;14.658;2023-01-26T17:55:53;101603.97;;;2.56;76.56
22572;BME280;11452;53.368;14.658;2023-01-26T18:00:59;101607.12;;;2.46;76.38
22572;BME280;11452;53.368;14.658;2023-01-26T18:06:05;101611.59;;;2.39;76.20
22572;BME280;11452;53.368;14.658;2023-01-26T18:11:13;101607.58;;;2.42;76.75
22572;BME280;11452;53.368;14.658;2023-01-26T18:16:20;101606.33;;;2.38;76.47
22572;BME280;11452;53.368;14.658;2023-01-26T18:21:28;101608.52;;;2.40;76.75
22572;BME280;11452;53.368;14.658;2023-01-26T18:26:35;101606.33;;;2.38;76.42
22572;BME280;11452;53.368;14.658;2023-01-26T18:31:41;101616.94;;;2.29;76.49
22572;BME280;11452;53.368;14.658;2023-01-26T18:36:47;101629.69;;;2.28;76.56
22572;BME280;11452;53.368;14.658;2023-01-26T18:41:52;101628.83;;;2.24;76.91
22572;BME280;11452;53.368;14.658;2023-01-26T18:46:58;101625.66;;;2.40;77.00
22572;BME280;11452;53.368;14.658;2023-01-26T18:52:03;101632.59;;;2.49;77.17
22572;BME280;11452;53.368;14.658;2023-01-26T18:57:09;101637.00;;;2.48;77.02
22572;BME280;11452;53.368;14.658;2023-01-26T19:02:15;101639.59;;;2.54;77.05
22572;BME280;11452;53.368;14.658;2023-01-26T19:07:21;101637.76;;;2.61;77.04
22572;BME280;11452;53.368;14.658;2023-01-26T19:12:27;101639.52;;;2.60;76.79
22572;BME280;11452;53.368;14.658;2023-01-26T19:17:33;101642.64;;;2.58;76.88
22572;BME280;11452;53.368;14.658;2023-01-26T19:22:38;101634.23;;;2.62;76.82
22572;BME280;11452;53.368;14.658;2023-01-26T19:27:44;101636.41;;;2.64;76.75
22572;BME280;11452;53.368;14.658;2023-01-26T19:32:49;101632.02;;;2.64;76.71
22572;BME280;11452;53.368;14.658;2023-01-26T19:38:13;101626.86;;;2.52;76.44
22572;BME280;11452;53.368;14.658;2023-01-26T19:43:19;101636.14;;;2.44;76.78
22572;BME280;11452;53.368;14.658;2023-01-26T19:48:26;101630.37;;;2.53;76.86
22572;BME280;11452;53.368;14.658;2023-01-26T19:53:34;101628.62;;;2.52;76.79
22572;BME280;11452;53.368;14.658;2023-01-26T19:58:40;101629.05;;;2.53;76.95
22572;BME280;11452;53.368;14.658;2023-01-26T20:03:53;101636.49;;;2.58;76.86
22572;BME280;11452;53.368;14.658;2023-01-26T20:09:01;101640.47;;;2.56;76.79
22572;BME280;11452;53.368;14.658;2023-01-26T20:14:10;101635.23;;;2.49;77.05
22572;BME280;11452;53.368;14.658;2023-01-26T20:19:15;101636.52;;;2.53;77.18
22572;BME280;11452;53.368;14.658;2023-01-26T20:24:21;101638.67;;;2.60;77.23
22572;BME280;11452;53.368;14.658;2023-01-26T20:29:26;101636.52;;;2.55;77.10
22572;BME280;11452;53.368;14.658;2023-01-26T20:34:32;101628.17;;;2.54;77.31
22572;BME280;11452;53.368;14.658;2023-01-26T20:39:37;101628.97;;;2.60;77.49
22572;BME280;11452;53.368;14.658;2023-01-26T20:44:43;101624.98;;;2.63;77.54
22572;BME280;11452;53.368;14.658;2023-01-26T20:49:49;101619.16;;;2.76;77.86
22572;BME280;11452;53.368;14.658;2023-01-26T20:54:56;101613.36;;;2.83;77.72
22572;BME280;11452;53.368;14.658;2023-01-26T21:00:02;101619.07;;;2.84;77.47
22572;BME280;11452;53.368;14.658;2023-01-26T21:05:08;101618.76;;;2.72;77.58
22572;BME280;11452;53.368;14.658;2023-01-26T21:10:14;101618.34;;;2.69;77.22
22572;BME280;11452;53.368;14.658;2023-01-26T21:15:21;101617.84;;;2.76;77.67
22572;BME280;11452;53.368;14.658;2023-01-26T21:20:27;101620.91;;;2.77;77.70
22572;BME280;11452;53.368;14.658;2023-01-26T21:25:32;101623.87;;;2.87;77.71
22572;BME280;11452;53.368;14.658;2023-01-26T21:30:38;101626.08;;;2.86;77.40
22572;BME280;11452;53.368;14.658;2023-01-26T21:35:43;101628.05;;;2.66;76.48
22572;BME280;11452;53.368;14.658;2023-01-26T21:40:57;101633.42;;;2.57;77.03
22572;BME280;11452;53.368;14.658;2023-01-26T21:46:04;101642.22;;;2.57;77.05
22572;BME280;11452;53.368;14.658;2023-01-26T21:51:10;101647.52;;;2.54;77.15
22572;BME280;11452;53.368;14.658;2023-01-26T21:56:34;101650.21;;;2.45;77.09
22572;BME280;11452;53.368;14.658;2023-01-26T22:01:45;101651.06;;;2.50;77.62
22572;BME280;11452;53.368;14.658;2023-01-26T22:06:51;101650.67;;;2.41;77.74
22572;BME280;11452;53.368;14.658;2023-01-26T22:11:57;101650.18;;;2.50;77.63
22572;BME280;11452;53.368;14.658;2023-01-26T22:17:02;101649.30;;;2.49;77.86
22572;BME280;11452;53.368;14.658;2023-01-26T22:22:08;101647.83;;;2.66;78.45
22572;BME280;11452;53.368;14.658;2023-01-26T22:27:13;101637.70;;;2.68;77.83
22572;BME280;11452;53.368;14.658;2023-01-26T22:32:19;101636.83;;;2.68;78.00
22572;BME280;11452;53.368;14.658;2023-01-26T22:37:24;101631.16;;;2.61;78.19
22572;BME280;11452;53.368;14.658;2023-01-26T22:42:30;101627.16;;;2.67;78.20
22572;BME280;11452;53.368;14.658;2023-01-26T22:47:36;101626.22;;;2.74;78.85
22572;BME280;11452;53.368;14.658;2023-01-26T22:52:42;101613.50;;;2.69;78.48
22572;BME280;11452;53.368;14.658;2023-01-26T22:57:47;101627.91;;;2.79;78.97
22572;BME280;11452;53.368;14.658;2023-01-26T23:02:53;101631.82;;;2.84;78.59
22572;BME280;11452;53.368;14.658;2023-01-26T23:07:58;101634.14;;;2.74;78.50
22572;BME280;11452;53.368;14.658;2023-01-26T23:13:04;101633.69;;;2.76;78.88
22572;BME280;11452;53.368;14.658;2023-01-26T23:18:10;101633.27;;;2.72;78.76
22572;BME280;11452;53.368;14.658;2023-01-26T23:23:15;101629.34;;;2.69;78.71
22572;BME280;11452;53.368;14.658;2023-01-26T23:28:25;101622.87;;;2.57;78.65
22572;BME280;11452;53.368;14.658;2023-01-26T23:33:32;101625.05;;;2.59;79.14
22572;BME280;11452;53.368;14.658;2023-01-26T23:38:38;101628.63;;;2.50;79.42
22572;BME280;11452;53.368;14.658;2023-01-26T23:43:44;101631.30;;;2.47;79.68
22572;BME280;11452;53.368;14.658;2023-01-26T23:48:49;101626.89;;;2.48;79.88
22572;BME280;11452;53.368;14.658;2023-01-26T23:53:55;101618.11;;;2.46;79.81
22572;BME280;11452;53.368;14.658;2023-01-26T23:59:01;101617.23;;;2.45;80.27
